Time;durP1;ratioP1;P1;durP2;ratioP2;P2;SDS_P1;SDS_P2;PMS_P1;PMS_P2;Temp;Humidity;BMP_temperature;BMP_pressure;BME280_temperature;BME280_humidity;BME280_pressure;Samples;Min_cycle;Max_cycle;Signal;HPM_P1;HPM_P2
2023/02/21 02:16:30;;;;;;;7.53;5.90;;;;;;;6.88;58.57;96612.22;4968931;28;20917;-68
2023/02/21 02:19:17;;;;;;;7.77;6.87;;;;;;;6.95;58.17;96601.59;4968732;28;20432;-68
2023/02/21 02:22:20;;;;;;;8.53;6.10;;;;;;;6.90;58.20;96613.03;4969160;28;20401;-68
2023/02/21 02:25:01;;;;;;;8.80;7.27;;;;;;;6.70;58.51;96600.50;4968721;28;20902;-68
2023/02/21 02:28:02;;;;;;;9.47;6.90;;;;;;;6.88;57.75;96600.03;4968454;28;20990;-67
2023/02/21 02:31:05;;;;;;;10.50;7.00;;;;;;;6.85;57.79;96589.69;4968627;28;20695;-68
2023/02/21 02:33:49;;;;;;;7.67;5.63;;;;;;;6.72;58.07;96594.34;4968928;28;20408;-68
2023/02/21 02:36:24;;;;;;;7.10;5.53;;;;;;;6.74;57.24;96596.94;4968187;28;20428;-69
2023/02/21 02:39:01;;;;;;;7.80;5.33;;;;;;;6.76;56.67;96600.34;4968301;28;20516;-69
2023/02/21 02:41:31;;;;;;;7.40;6.00;;;;;;;6.73;56.71;96590.84;4968587;28;20447;-67
2023/02/21 02:44:14;;;;;;;11.83;7.00;;;;;;;6.76;56.80;96589.91;4969198;28;21179;-67
2023/02/21 02:46:42;;;;;;;6.70;5.73;;;;;;;6.73;56.73;96584.75;4968136;28;20771;-68
2023/02/21 02:49:13;;;;;;;10.50;6.57;;;;;;;6.74;56.85;96589.09;4968470;28;20428;-68
2023/02/21 02:51:38;;;;;;;8.77;5.47;;;;;;;6.78;56.69;96588.13;4968511;28;20469;-69
2023/02/21 02:54:04;;;;;;;8.03;5.67;;;;;;;6.84;56.34;96585.34;4968331;28;20453;-68
2023/02/21 02:56:29;;;;;;;7.10;5.73;;;;;;;6.76;56.66;96582.09;4968288;28;20252;-69
2023/02/21 02:59:09;;;;;;;8.30;6.23;;;;;;;6.74;56.42;96582.13;4968504;28;20169;-68
2023/02/21 03:01:53;;;;;;;8.13;5.97;;;;;;;6.82;56.12;96588.91;4968296;28;20184;-69
2023/02/21 03:04:45;;;;;;;6.60;5.10;;;;;;;6.58;57.11;96586.88;4968291;28;21053;-69
2023/02/21 03:07:17;;;;;;;6.93;5.23;;;;;;;6.65;56.94;96584.13;4967959;28;20486;-67
2023/02/21 03:09:42;;;;;;;7.43;5.70;;;;;;;6.50;57.41;96593.19;4968073;28;20433;-68
2023/02/21 03:12:10;;;;;;;8.00;5.60;;;;;;;6.44;57.71;96586.34;4968247;28;20416;-68
2023/02/21 03:14:45;;;;;;;7.13;6.43;;;;;;;6.48;57.51;96595.81;4968273;28;20530;-68
2023/02/21 03:17:15;;;;;;;10.43;6.00;;;;;;;6.60;57.41;96588.59;4967867;28;20448;-68
2023/02/21 03:19:45;;;;;;;9.53;6.43;;;;;;;6.46;57.46;96587.19;4970450;28;20586;-68
2023/02/21 03:22:17;;;;;;;8.33;6.23;;;;;;;6.55;57.21;96584.34;4972236;28;20408;-68
2023/02/21 03:24:47;;;;;;;9.53;6.70;;;;;;;6.61;56.81;96592.91;4972233;28;20879;-69
2023/02/21 03:27:14;;;;;;;22.33;8.23;;;;;;;6.65;56.62;96591.94;4971607;28;20453;-71
2023/02/21 03:29:40;;;;;;;7.80;5.73;;;;;;;6.41;57.31;96589.03;4971982;28;20425;-67
2023/02/21 03:34:49;;;;;;;9.43;6.60;;;;;;;6.42;57.01;96585.53;4972161;28;20421;-70
2023/02/21 03:37:32;;;;;;;9.10;5.70;;;;;;;6.43;56.85;96586.41;4971482;28;20404;-70
2023/02/21 03:39:57;;;;;;;7.80;5.40;;;;;;;6.53;56.48;96588.75;4971612;28;20181;-70
2023/02/21 03:42:23;;;;;;;9.87;5.60;;;;;;;6.43;56.99;96597.69;4971891;28;20737;-70
2023/02/21 03:44:48;;;;;;;10.97;6.10;;;;;;;6.47;56.80;96588.91;4971533;28;20170;-70
2023/02/21 03:47:14;;;;;;;10.47;5.83;;;;;;;6.39;57.06;96593.44;4971184;28;20926;-67
2023/02/21 03:49:40;;;;;;;12.10;5.33;;;;;;;6.34;56.85;96592.69;4971559;28;20727;-68
2023/02/21 03:52:05;;;;;;;6.33;5.60;;;;;;;6.27;57.25;96591.97;4971701;28;20236;-69
2023/02/21 03:54:30;;;;;;;8.80;5.50;;;;;;;6.31;57.50;96588.41;4971347;28;20248;-69
2023/02/21 03:56:56;;;;;;;7.00;5.70;;;;;;;6.19;57.89;96574.81;4971150;28;20173;-69
2023/02/21 03:59:21;;;;;;;6.17;5.20;;;;;;;6.28;57.24;96587.63;4971383;28;20223;-68
2023/02/21 04:01:47;;;;;;;6.97;5.10;;;;;;;6.15;57.22;96584.47;4971532;28;20861;-69
2023/02/21 04:04:12;;;;;;;8.30;6.20;;;;;;;6.04;58.11;96586.44;4971430;28;20251;-70
2023/02/21 04:06:37;;;;;;;8.57;5.97;;;;;;;6.16;57.19;96588.75;4971243;28;20940;-68
2023/02/21 04:09:03;;;;;;;9.50;5.73;;;;;;;6.07;57.28;96592.47;4971290;28;20296;-69
2023/02/21 04:11:30;;;;;;;9.20;5.50;;;;;;;6.07;57.18;96584.66;4971367;28;20221;-69
2023/02/21 04:13:55;;;;;;;8.40;5.53;;;;;;;6.04;57.22;96587.31;4971497;28;20233;-69
2023/02/21 04:16:20;;;;;;;14.27;6.03;;;;;;;6.10;56.64;96589.78;4971058;28;21382;-69
2023/02/21 04:18:46;;;;;;;7.00;5.30;;;;;;;6.06;56.82;96587.28;4971223;28;20189;-69
2023/02/21 04:21:15;;;;;;;6.60;4.83;;;;;;;6.07;56.77;96584.66;4971071;28;20542;-68
2023/02/21 04:23:41;;;;;;;6.43;5.40;;;;;;;6.20;56.28;96589.56;4970943;28;20590;-68
2023/02/21 04:26:06;;;;;;;6.10;5.20;;;;;;;6.08;55.43;96588.09;4970820;28;20416;-69
2023/02/21 04:28:31;;;;;;;15.50;5.10;;;;;;;6.10;55.65;96588.94;4970960;28;20205;-68
2023/02/21 04:30:57;;;;;;;8.87;4.70;;;;;;;6.10;55.58;96589.78;4958471;28;20619;-69
2023/02/21 04:33:22;;;;;;;6.47;4.50;;;;;;;5.73;55.87;96594.91;4951828;28;20170;-69
2023/02/21 04:35:49;;;;;;;6.43;3.97;;;;;;;5.84;56.60;96599.91;4951343;28;20293;-69
2023/02/21 04:38:14;;;;;;;6.07;4.70;;;;;;;6.08;55.60;96588.09;4951297;28;20194;-69
2023/02/21 04:40:40;;;;;;;4.73;4.30;;;;;;;5.99;55.94;96599.59;4951439;28;20441;-69
2023/02/21 04:43:05;;;;;;;9.77;5.50;;;;;;;5.99;56.01;96591.75;4951623;28;20170;-68
2023/02/21 04:45:31;;;;;;;6.03;5.43;;;;;;;6.01;55.97;96589.97;4951374;28;20619;-69
2023/02/21 04:47:56;;;;;;;5.00;4.50;;;;;;;5.96;56.13;96596.19;4951244;28;20572;-69
2023/02/21 04:50:22;;;;;;;5.87;5.10;;;;;;;5.95;56.67;96590.13;4951355;28;20209;-68
2023/02/21 04:52:47;;;;;;;6.50;5.30;;;;;;;6.04;56.45;96584.69;4951327;28;20171;-69
2023/02/21 04:55:14;;;;;;;8.83;5.23;;;;;;;6.00;57.14;96590.88;4951570;28;20859;-69
2023/02/21 04:57:39;;;;;;;16.27;5.43;;;;;;;6.03;56.59;96589.97;4951783;28;20261;-69
2023/02/21 05:00:06;;;;;;;8.07;6.27;;;;;;;5.75;57.35;96584.47;4952103;28;20517;-69
2023/02/21 05:02:32;;;;;;;15.43;6.23;;;;;;;5.88;57.51;96589.38;4952641;28;20200;-68
2023/02/21 05:04:57;;;;;;;6.93;5.30;;;;;;;6.06;57.19;96590.72;4952690;28;20418;-69
2023/02/21 05:07:23;;;;;;;7.80;6.10;;;;;;;6.00;57.70;96582.19;4951843;28;20235;-69
2023/02/21 05:09:48;;;;;;;26.63;6.30;;;;;;;6.13;57.08;96573.22;4951026;28;20245;-69
2023/02/21 05:12:14;;;;;;;8.63;5.57;;;;;;;5.86;57.27;96579.91;4950900;28;20185;-69
2023/02/21 05:14:40;;;;;;;10.13;5.60;;;;;;;5.90;57.55;96582.38;4949685;28;20181;-68
2023/02/21 05:17:06;;;;;;;19.97;6.97;;;;;;;5.95;57.32;96584.91;4950426;28;20174;-69
2023/02/21 05:19:32;;;;;;;9.50;4.70;;;;;;;5.85;57.68;96578.16;4950631;28;20481;-69
2023/02/21 05:22:00;;;;;;;8.63;5.93;;;;;;;5.89;57.64;96579.81;4950724;28;20927;-69
2023/02/21 05:24:27;;;;;;;6.23;5.00;;;;;;;5.81;57.64;96577.41;4950653;28;20217;-69
2023/02/21 05:26:53;;;;;;;8.30;5.27;;;;;;;5.87;57.06;96579.84;4963170;28;20877;-68
2023/02/21 05:29:18;;;;;;;8.70;6.60;;;;;;;5.88;57.53;96576.38;4969404;28;20454;-69
2023/02/21 05:31:45;;;;;;;11.20;6.03;;;;;;;5.84;57.59;96573.88;4968638;28;20616;-69
2023/02/21 05:34:11;;;;;;;5.60;5.10;;;;;;;5.90;57.48;96576.31;4967945;28;20181;-69
2023/02/21 05:36:37;;;;;;;12.20;5.80;;;;;;;5.69;57.93;96583.72;4969212;28;20421;-69
2023/02/21 05:39:04;;;;;;;22.10;6.53;;;;;;;5.65;57.93;96579.47;4969338;28;20907;-69
2023/02/21 05:41:29;;;;;;;14.57;5.50;;;;;;;5.75;57.35;96577.50;4969209;28;20305;-69
2023/02/21 05:43:54;;;;;;;11.43;5.13;;;;;;;5.67;58.03;96585.50;4969249;28;20503;-68
2023/02/21 05:46:22;;;;;;;20.77;7.27;;;;;;;5.66;57.41;96585.53;4966396;28;20173;-69
2023/02/21 05:48:47;;;;;;;10.90;5.03;;;;;;;5.72;57.27;96575.84;4966749;28;20208;-69
2023/02/21 05:51:14;;;;;;;11.87;5.33;;;;;;;5.87;57.14;96572.03;4966625;28;20433;-69
2023/02/21 05:53:39;;;;;;;6.80;5.10;;;;;;;5.84;56.90;96576.47;4966701;28;20212;-69
2023/02/21 05:56:04;;;;;;;23.40;6.73;;;;;;;5.74;57.36;96578.41;4966477;28;20405;-69
2023/02/21 05:58:30;;;;;;;9.83;5.87;;;;;;;5.65;57.34;96582.06;4966767;28;20237;-68
2023/02/21 06:00:55;;;;;;;10.67;5.60;;;;;;;5.63;58.00;96578.63;4965820;28;20276;-68
2023/02/21 06:03:21;;;;;;;12.30;5.37;;;;;;;5.50;58.25;96572.84;4965840;28;20244;-68
2023/02/21 06:05:46;;;;;;;9.80;5.53;;;;;;;5.47;58.67;96580.69;4966172;28;20177;-68
2023/02/21 06:08:12;;;;;;;10.50;5.50;;;;;;;5.58;58.11;96577.88;4964664;28;20304;-68
2023/02/21 06:10:37;;;;;;;8.40;5.63;;;;;;;5.49;57.82;96580.69;4963755;28;20212;-68
2023/02/21 06:13:03;;;;;;;11.57;5.97;;;;;;;5.40;58.00;96575.66;4964871;28;20165;-68
2023/02/21 06:15:28;;;;;;;9.07;5.70;;;;;;;5.62;57.74;96581.25;4964596;28;20980;-68
2023/02/21 06:17:53;;;;;;;7.20;5.50;;;;;;;5.51;57.65;96578.91;4964127;28;20185;-68
2023/02/21 06:20:19;;;;;;;7.47;5.40;;;;;;;5.41;57.94;96585.16;4965030;28;20288;-68
2023/02/21 06:22:44;;;;;;;10.03;5.03;;;;;;;5.43;58.05;96581.69;4965123;28;20284;-68
2023/02/21 06:25:10;;;;;;;12.40;5.43;;;;;;;5.71;57.16;96573.25;4960176;28;20228;-68
2023/02/21 06:27:36;;;;;;;10.03;5.80;;;;;;;6.56;54.71;96575.63;4962837;28;20237;-68
2023/02/21 06:30:02;;;;;;;13.43;7.50;;;;;;;7.14;52.18;96580.22;4964297;28;20206;-68
2023/02/21 06:32:28;;;;;;;7.40;5.80;;;;;;;7.57;50.71;96576.38;4963657;28;20213;-68
2023/02/21 06:34:53;;;;;;;20.53;6.40;;;;;;;8.28;49.36;96573.31;4959712;28;20461;-68
2023/02/21 06:37:19;;;;;;;14.93;6.57;;;;;;;8.71;47.19;96581.53;4963707;28;20216;-68
2023/02/21 06:39:44;;;;;;;17.27;7.37;;;;;;;9.13;45.62;96574.91;4964313;28;20539;-69
2023/02/21 06:42:14;;;;;;;14.93;5.70;;;;;;;9.89;44.41;96569.44;4964907;28;20591;-68
2023/02/21 06:44:43;;;;;;;67.03;12.10;;;;;;;10.23;43.04;96568.13;4965446;28;20239;-68
2023/02/21 06:47:09;;;;;;;49.37;10.47;;;;;;;10.70;42.17;96562.75;4965470;28;20566;-68
2023/02/21 06:49:34;;;;;;;22.43;7.47;;;;;;;10.97;40.85;96565.13;4958297;28;21027;-68
2023/02/21 06:52:00;;;;;;;100.37;15.50;;;;;;;11.08;40.04;96564.66;4964726;28;20293;-68
2023/02/21 06:54:25;;;;;;;44.73;9.80;;;;;;;11.31;39.91;96559.25;4964105;28;20627;-69
2023/02/21 06:56:51;;;;;;;38.10;8.30;;;;;;;11.49;39.27;96568.09;4963091;28;21011;-69
2023/02/21 06:59:16;;;;;;;25.23;5.80;;;;;;;11.75;38.18;96568.69;4959624;28;20709;-68
2023/02/21 07:01:43;;;;;;;8.20;5.10;;;;;;;11.92;37.42;96560.06;4958662;28;20166;-68
2023/02/21 07:04:09;;;;;;;12.93;5.27;;;;;;;12.14;36.80;96565.16;4965610;28;20181;-69
2023/02/21 07:06:34;;;;;;;16.33;6.67;;;;;;;12.20;37.06;96564.88;4965299;28;20782;-68
2023/02/21 07:09:00;;;;;;;6.70;4.40;;;;;;;12.36;36.36;96567.63;4965166;28;20212;-69
2023/02/21 07:11:26;;;;;;;7.90;4.70;;;;;;;12.56;36.04;96564.00;4965500;28;21001;-68
2023/02/21 07:13:55;;;;;;;6.93;4.57;;;;;;;12.71;35.44;96564.13;4966284;28;20515;-67
2023/02/21 07:16:21;;;;;;;12.30;6.10;;;;;;;12.68;35.25;96577.44;4955460;28;20431;-70
2023/02/21 07:18:47;;;;;;;20.93;5.50;;;;;;;14.09;36.24;96563.09;4946416;29;20450;-67
2023/02/21 07:21:14;;;;;;;19.67;7.00;;;;;;;16.00;37.49;96552.78;4946182;29;20469;-69
2023/02/21 07:23:41;;;;;;;23.07;6.20;;;;;;;14.43;32.20;96554.13;4946325;29;20174;-69
2023/02/21 07:26:07;;;;;;;11.00;5.23;;;;;;;13.54;33.87;96573.06;4946085;29;20429;-69
2023/02/21 07:28:32;;;;;;;9.43;4.53;;;;;;;13.85;33.49;96566.16;4946600;29;20458;-69
2023/02/21 07:30:57;;;;;;;19.20;6.50;;;;;;;14.45;32.24;96560.19;4959328;28;20349;-67
2023/02/21 07:33:23;;;;;;;6.07;5.13;;;;;;;14.60;31.69;96562.00;4967496;28;20264;-68
2023/02/21 07:35:48;;;;;;;7.20;4.73;;;;;;;14.79;31.45;96558.28;4967515;28;20268;-68
2023/02/21 07:38:25;;;;;;;8.33;5.07;;;;;;;14.75;31.31;96567.31;4967519;28;20244;-68
2023/02/21 07:40:54;;;;;;;20.03;8.67;;;;;;;14.77;31.82;96568.94;4966336;28;20216;-68
2023/02/21 07:43:19;;;;;;;9.47;5.60;;;;;;;13.95;33.22;96569.97;4962562;28;20444;-69
2023/02/21 07:45:45;;;;;;;9.20;5.50;;;;;;;13.74;33.18;96573.78;4967125;28;20432;-69
2023/02/21 07:48:13;;;;;;;11.43;5.97;;;;;;;14.14;32.87;96572.47;4965621;28;20205;-68
2023/02/21 07:50:40;;;;;;;9.57;5.40;;;;;;;14.80;31.73;96575.84;4967836;28;20221;-69
2023/02/21 07:53:05;;;;;;;7.20;5.10;;;;;;;15.85;29.92;96566.03;4963505;28;20844;-69
2023/02/21 07:55:32;;;;;;;11.67;5.00;;;;;;;16.67;28.11;96563.44;4966535;28;20519;-69
2023/02/21 07:57:57;;;;;;;10.13;4.20;;;;;;;17.24;27.60;96563.19;4963648;28;20313;-69
2023/02/21 08:00:24;;;;;;;9.80;4.87;;;;;;;17.86;26.57;96558.97;4969458;28;21223;-69
2023/02/21 08:02:50;;;;;;;12.20;5.23;;;;;;;18.10;25.95;96561.72;4968872;28;20273;-69
2023/02/21 08:05:16;;;;;;;6.63;4.77;;;;;;;18.40;25.41;96564.81;4968821;28;20416;-68
2023/02/21 08:07:42;;;;;;;10.67;4.97;;;;;;;18.44;25.64;96565.44;4970771;28;20834;-68
2023/02/21 08:10:08;;;;;;;9.27;4.63;;;;;;;19.25;24.23;96562.09;4970677;28;20539;-68
2023/02/21 08:12:34;;;;;;;5.03;4.40;;;;;;;19.15;24.12;96565.53;4970706;28;20181;-68
2023/02/21 08:14:59;;;;;;;6.03;4.40;;;;;;;19.11;24.06;96561.41;4969760;28;20444;-68
2023/02/21 08:17:25;;;;;;;5.70;3.90;;;;;;;19.04;23.79;96567.22;4965790;28;20184;-68
2023/02/21 08:19:50;;;;;;;11.13;4.87;;;;;;;19.35;23.63;96564.88;4974331;28;20263;-68
2023/02/21 08:22:16;;;;;;;7.77;4.60;;;;;;;19.14;24.02;96562.03;4985606;28;20275;-68
2023/02/21 08:24:41;;;;;;;7.93;4.40;;;;;;;18.45;24.63;96563.63;4973433;28;20220;-68
2023/02/21 08:27:07;;;;;;;6.47;4.17;;;;;;;18.52;25.22;96570.19;4989508;28;20231;-68
2023/02/21 08:29:32;;;;;;;16.10;5.40;;;;;;;18.28;25.24;96562.19;4989726;28;20255;-68
2023/02/21 08:31:57;;;;;;;16.00;4.73;;;;;;;18.09;25.66;96568.81;4963551;28;20276;-68
2023/02/21 08:34:23;;;;;;;7.80;4.80;;;;;;;18.39;25.53;96563.09;4950928;28;20229;-67
2023/02/21 08:36:49;;;;;;;8.80;4.83;;;;;;;17.91;26.29;96563.00;4950788;28;20186;-67
2023/02/21 08:39:15;;;;;;;8.50;4.20;;;;;;;17.85;26.43;96559.94;4965983;28;20555;-67
2023/02/21 08:41:43;;;;;;;10.63;4.93;;;;;;;17.86;26.40;96562.50;4963568;28;20189;-70
2023/02/21 08:44:10;;;;;;;16.03;6.03;;;;;;;17.60;26.98;96564.28;4970319;28;20353;-69
2023/02/21 08:46:38;;;;;;;9.73;5.27;;;;;;;18.09;26.11;96567.97;4969564;28;20421;-69
2023/02/21 08:49:03;;;;;;;8.80;5.20;;;;;;;18.10;26.44;96562.56;4970220;28;20452;-67
2023/02/21 08:51:31;;;;;;;8.73;5.20;;;;;;;17.90;26.98;96563.97;4970295;28;20784;-68
2023/02/21 08:53:56;;;;;;;9.70;5.93;;;;;;;17.98;26.75;96560.78;4968129;28;20243;-69
2023/02/21 08:56:23;;;;;;;20.03;7.03;;;;;;;17.80;27.82;96562.03;4967861;28;20515;-67
2023/02/21 08:58:49;;;;;;;16.07;6.53;;;;;;;18.10;27.67;96559.06;4970100;28;20165;-69
2023/02/21 09:01:15;;;;;;;53.03;10.80;;;;;;;18.14;28.04;96565.81;4969039;28;20460;-68
2023/02/21 09:03:40;;;;;;;38.23;9.40;;;;;;;18.33;27.72;96568.00;4969999;28;20177;-68
2023/02/21 09:06:06;;;;;;;31.30;9.07;;;;;;;18.20;28.12;96568.91;4965663;28;20177;-69
2023/02/21 09:08:32;;;;;;;25.30;7.80;;;;;;;17.73;28.81;96564.28;4969758;28;20209;-69
2023/02/21 09:10:59;;;;;;;38.33;9.70;;;;;;;18.18;28.61;96554.88;4955982;28;20198;-69
2023/02/21 09:13:25;;;;;;;12.90;6.73;;;;;;;17.97;28.84;96557.25;4957753;28;20429;-68
2023/02/21 09:15:51;;;;;;;37.17;8.30;;;;;;;18.16;28.81;96550.63;4966698;28;20447;-68
2023/02/21 09:18:17;;;;;;;13.47;7.20;;;;;;;17.98;28.96;96555.47;4963162;28;20914;-69
2023/02/21 09:20:42;;;;;;;20.63;6.57;;;;;;;18.29;28.95;96555.94;4968981;28;20213;-69
2023/02/21 09:23:08;;;;;;;15.33;6.90;;;;;;;18.26;29.20;96553.47;4968547;28;20537;-70
2023/02/21 09:25:34;;;;;;;14.17;6.70;;;;;;;18.71;28.98;96559.03;4969086;28;20316;-69
2023/02/21 09:28:00;;;;;;;11.43;6.70;;;;;;;18.52;29.45;96559.53;4968835;28;20210;-68
2023/02/21 09:30:28;;;;;;;11.03;6.90;;;;;;;18.87;29.32;96559.63;4968919;28;20193;-69
2023/02/21 09:32:57;;;;;;;13.97;7.10;;;;;;;18.85;29.13;96552.72;4968618;28;20419;-70
2023/02/21 09:35:23;;;;;;;10.60;7.07;;;;;;;18.92;29.12;96556.63;4967964;28;20460;-68
2023/02/21 09:37:48;;;;;;;32.10;8.80;;;;;;;18.95;29.38;96551.94;4967980;28;20421;-67
2023/02/21 09:40:17;;;;;;;18.80;7.20;;;;;;;19.19;29.00;96553.72;4968815;28;20198;-69
2023/02/21 09:42:42;;;;;;;11.67;8.10;;;;;;;18.71;30.08;96557.25;4968329;28;20640;-69
2023/02/21 09:45:16;;;;;;;15.60;8.40;;;;;;;18.53;30.08;96551.47;4969287;28;20447;-69
2023/02/21 09:47:44;;;;;;;14.10;6.80;;;;;;;18.78;30.37;96552.34;4962261;28;20202;-69
2023/02/21 09:50:14;;;;;;;10.40;7.60;;;;;;;18.59;30.64;96553.69;4960969;28;20469;-68
2023/02/21 09:52:41;;;;;;;12.13;6.90;;;;;;;18.09;32.01;96550.22;4969292;28;20640;-68
2023/02/21 09:55:37;;;;;;;8.77;7.40;;;;;;;18.64;30.58;96556.00;4969643;28;20413;-68
2023/02/21 09:58:09;;;;;;;31.40;10.13;;;;;;;18.76;30.72;96549.81;4969365;28;20479;-69
2023/02/21 10:00:36;;;;;;;24.10;9.97;;;;;;;18.76;30.56;96555.13;4967246;28;20432;-69
2023/02/21 10:03:30;;;;;;;16.90;8.23;;;;;;;18.74;30.74;96546.38;4968237;28;20833;-69
2023/02/21 10:06:40;;;;;;;10.47;7.57;;;;;;;18.72;30.71;96548.31;4948738;28;20829;-68
2023/02/21 10:09:16;;;;;;;9.03;7.20;;;;;;;18.78;30.36;96542.56;4967592;28;20472;-69
2023/02/21 10:11:58;;;;;;;9.70;7.60;;;;;;;18.63;30.74;96544.50;4976690;28;20422;-69
2023/02/21 10:14:50;;;;;;;9.90;7.80;;;;;;;18.32;31.08;96551.22;4973941;28;20425;-69
2023/02/21 10:17:22;;;;;;;13.47;7.97;;;;;;;18.83;31.01;96540.41;4950749;28;20425;-69
2023/02/21 10:19:52;;;;;;;13.70;7.80;;;;;;;18.92;30.52;96538.00;4949096;28;20442;-69
2023/02/21 10:22:23;;;;;;;12.07;7.70;;;;;;;18.49;31.17;96550.00;4967919;28;20436;-69
2023/02/21 10:24:48;;;;;;;11.50;7.93;;;;;;;18.76;30.59;96539.19;4968168;28;20409;-69
2023/02/21 10:27:20;;;;;;;9.37;6.97;;;;;;;18.92;30.37;96538.88;4968265;28;20503;-69
2023/02/21 10:30:04;;;;;;;12.63;6.93;;;;;;;19.07;30.38;96538.69;4965430;28;20319;-68
2023/02/21 10:32:31;;;;;;;32.07;8.23;;;;;;;18.82;30.38;96543.19;4966691;28;20451;-69
2023/02/21 10:34:59;;;;;;;23.23;8.83;;;;;;;18.43;31.58;96542.50;4967453;28;20409;-68
2023/02/21 10:37:52;;;;;;;9.03;7.33;;;;;;;18.14;31.84;96549.88;4967127;28;20413;-68
2023/02/21 10:40:30;;;;;;;10.67;7.30;;;;;;;18.40;31.92;96548.88;4962854;28;20452;-69
2023/02/21 10:43:12;;;;;;;18.20;8.40;;;;;;;18.71;31.39;96533.31;4961914;28;20547;-69
2023/02/21 10:45:54;;;;;;;16.83;8.47;;;;;;;18.44;31.45;96540.66;4964176;28;20417;-68
2023/02/21 10:48:27;;;;;;;25.53;7.90;;;;;;;18.22;31.93;96534.28;4963237;28;20563;-69
2023/02/21 10:51:27;;;;;;;13.97;7.47;;;;;;;18.59;31.82;96536.88;4964675;28;20436;-68
2023/02/21 10:53:52;;;;;;;7.53;6.83;;;;;;;18.75;31.40;96524.13;4965118;28;20416;-68
2023/02/21 10:56:22;;;;;;;9.77;7.40;;;;;;;18.91;31.74;96523.88;4964544;28;20930;-69
2023/02/21 10:58:53;;;;;;;8.63;7.67;;;;;;;18.81;31.50;96520.22;4962421;28;20200;-68
2023/02/21 11:01:28;;;;;;;14.47;8.43;;;;;;;19.05;31.16;96522.84;4964423;28;20527;-68
2023/02/21 11:04:00;;;;;;;21.07;7.67;;;;;;;19.00;31.25;96514.38;4964719;28;20424;-69
2023/02/21 11:06:30;;;;;;;18.83;8.50;;;;;;;19.13;31.14;96508.94;4964485;28;20484;-69
2023/02/21 11:08:57;;;;;;;14.37;7.80;;;;;;;19.28;30.66;96509.59;4964654;28;21082;-69
2023/02/21 11:11:33;;;;;;;17.57;7.60;;;;;;;19.27;30.50;96507.88;4964174;28;20942;-69
2023/02/21 11:14:17;;;;;;;11.17;7.23;;;;;;;18.89;31.56;96507.19;4964212;28;20507;-69
2023/02/21 11:16:42;;;;;;;8.10;6.80;;;;;;;19.10;31.11;96495.88;4964480;28;20840;-69
2023/02/21 11:19:13;;;;;;;9.93;8.00;;;;;;;19.00;30.50;96501.06;4967302;28;20532;-68
2023/02/21 11:21:44;;;;;;;12.57;7.57;;;;;;;19.12;30.57;96497.47;4967574;28;20184;-69
2023/02/21 11:24:11;;;;;;;6.70;5.70;;;;;;;19.04;30.39;96484.75;4967442;28;20420;-68
2023/02/21 11:26:45;;;;;;;15.50;6.60;;;;;;;18.87;30.12;96489.66;4966406;28;20444;-68
2023/02/21 11:29:18;;;;;;;10.33;6.80;;;;;;;18.89;29.66;96477.94;4966729;28;20795;-68
2023/02/21 11:31:44;;;;;;;18.40;7.07;;;;;;;18.86;28.66;96470.19;4950299;28;20537;-69
2023/02/21 11:34:12;;;;;;;15.63;7.10;;;;;;;19.04;28.95;96481.25;4966263;28;20443;-68
2023/02/21 11:36:41;;;;;;;9.07;5.57;;;;;;;19.21;28.90;96475.47;4965713;28;20432;-68
2023/02/21 11:39:15;;;;;;;14.87;7.13;;;;;;;19.20;29.35;96465.78;4967244;28;20433;-68
2023/02/21 11:41:55;;;;;;;19.93;7.93;;;;;;;19.44;29.42;96470.16;4971306;28;20427;-69
2023/02/21 11:44:36;;;;;;;12.73;6.93;;;;;;;19.40;29.58;96463.41;4970906;28;20483;-68
2023/02/21 11:47:20;;;;;;;9.83;6.37;;;;;;;19.15;30.16;96461.78;4970963;28;20504;-69
2023/02/21 11:50:04;;;;;;;8.87;7.17;;;;;;;18.32;31.99;96462.72;4970947;28;20535;-68
2023/02/21 11:52:44;;;;;;;6.83;6.13;;;;;;;18.40;31.85;96453.22;4967428;28;20518;-68
2023/02/21 11:55:20;;;;;;;8.10;6.20;;;;;;;18.20;31.70;96453.84;4968972;28;20432;-67
2023/02/21 11:57:56;;;;;;;11.87;6.23;;;;;;;17.52;32.05;96445.41;4962908;28;20416;-68
2023/02/21 12:01:01;;;;;;;18.07;6.70;;;;;;;18.18;31.94;96442.47;4970614;28;20435;-68
2023/02/21 12:03:51;;;;;;;14.03;5.97;;;;;;;18.13;31.89;96432.19;4970447;28;20415;-69
2023/02/21 12:06:50;;;;;;;12.37;5.37;;;;;;;18.71;30.64;96434.09;4984571;28;20511;-69
2023/02/21 12:09:18;;;;;;;28.37;7.10;;;;;;;18.49;31.16;96424.25;4970367;28;20603;-68
2023/02/21 12:11:48;;;;;;;18.50;6.47;;;;;;;18.86;30.13;96422.34;4970533;28;20787;-68
2023/02/21 12:14:50;;;;;;;11.20;5.17;;;;;;;18.78;29.85;96412.31;4968658;28;20447;-68
2023/02/21 12:20:32;;;;;;;18.43;6.03;;;;;;;18.45;29.70;96409.50;4974936;28;20444;-68
2023/02/21 12:23:10;;;;;;;12.60;5.20;;;;;;;18.22;30.90;96401.44;4969934;28;20895;-72
2023/02/21 12:25:54;;;;;;;155.47;15.40;;;;;;;18.73;28.10;96401.16;4968985;28;20559;-71
2023/02/21 12:28:53;;;;;;;12.60;6.00;;;;;;;18.85;27.57;96398.50;4970145;28;20534;-71
2023/02/21 12:31:56;;;;;;;10.57;4.37;;;;;;;18.90;27.32;96386.56;4970137;28;20778;-70
2023/02/21 12:34:34;;;;;;;14.63;6.03;;;;;;;18.97;27.76;96385.13;4969310;28;20843;-71
2023/02/21 12:37:16;;;;;;;13.50;4.60;;;;;;;19.16;27.35;96375.72;4969744;28;20419;-69
2023/02/21 12:40:07;;;;;;;35.53;6.20;;;;;;;18.89;27.48;96368.06;4969593;28;21026;-71
2023/02/21 12:42:36;;;;;;;31.30;6.60;;;;;;;18.95;28.65;96360.47;4969936;28;20412;-70
2023/02/21 12:45:28;;;;;;;12.93;4.83;;;;;;;19.04;28.65;96353.59;4968843;28;20429;-69
2023/02/21 12:48:02;;;;;;;5.60;3.60;;;;;;;18.67;28.19;96359.06;4962045;28;20482;-71
2023/02/21 12:50:40;;;;;;;4.00;3.60;;;;;;;18.45;28.46;96348.38;4968507;28;20424;-71
2023/02/21 12:53:12;;;;;;;9.35;3.60;;;;;;;18.45;28.89;96353.69;4966677;28;20545;-69
2023/02/21 12:55:46;;;;;;;9.43;4.05;;;;;;;18.76;29.33;96336.25;4968641;28;20557;-70
2023/02/21 12:58:21;;;;;;;11.33;5.50;;;;;;;18.52;28.84;96334.53;4968159;28;20173;-68
2023/02/21 13:00:54;;;;;;;21.13;5.07;;;;;;;18.58;29.01;96330.53;4969546;28;20432;-68
2023/02/21 13:03:50;;;;;;;8.67;4.73;;;;;;;18.79;28.95;96328.91;4968723;28;20456;-68
2023/02/21 13:06:25;;;;;;;16.58;5.60;;;;;;;18.88;28.46;96322.03;4967880;28;20410;-68
2023/02/21 13:09:16;;;;;;;18.47;3.53;;;;;;;18.90;27.06;96316.56;4969866;28;20201;-68
2023/02/21 13:12:01;;;;;;;9.17;3.50;;;;;;;18.93;27.03;96311.03;4968310;28;20440;-69
2023/02/21 13:14:34;;;;;;;11.13;4.40;;;;;;;18.78;27.76;96305.97;4969495;28;20412;-68
2023/02/21 13:17:00;;;;;;;10.30;4.83;;;;;;;18.80;27.87;96306.69;4968037;28;20463;-69
2023/02/21 13:19:34;;;;;;;10.10;4.93;;;;;;;18.69;28.41;96305.81;4983813;28;20479;-68
2023/02/21 13:25:49;;;;;;;36.13;7.35;;;;;;;18.89;27.73;96298.94;4985146;28;20424;-66
2023/02/21 13:28:23;;;;;;;6.93;3.50;;;;;;;18.74;27.77;96282.34;4985515;28;20291;-68
2023/02/21 13:31:09;;;;;;;16.13;5.70;;;;;;;18.73;34.74;96288.63;4967929;28;20453;-67
2023/02/21 13:33:42;;;;;;;17.83;5.00;;;;;;;18.73;33.46;96281.53;4969037;28;20816;-68
2023/02/21 13:36:40;;;;;;;14.87;5.70;;;;;;;18.74;34.95;96272.56;4966411;28;20424;-68
2023/02/21 13:39:20;;;;;;;12.40;4.20;;;;;;;18.72;34.45;96271.84;4968474;28;20425;-68
2023/02/21 13:41:56;;;;;;;9.27;3.40;;;;;;;18.72;30.94;96266.53;4964573;28;20520;-67
2023/02/21 13:44:28;;;;;;;8.63;4.20;;;;;;;18.70;28.36;96262.28;4948371;28;20436;-68
2023/02/21 13:47:02;;;;;;;9.30;4.90;;;;;;;18.55;28.43;96254.56;4966404;28;20439;-67
2023/02/21 13:49:50;;;;;;;14.13;4.63;;;;;;;18.63;36.05;96256.59;4968701;28;20456;-67
2023/02/21 13:52:18;;;;;;;11.50;3.63;;;;;;;18.45;28.38;96255.38;4968667;28;20413;-67
2023/02/21 13:55:17;;;;;;;5.77;3.03;;;;;;;17.86;31.20;96251.03;4967982;28;20416;-68
2023/02/21 13:57:55;;;;;;;9.70;2.90;;;;;;;18.26;32.20;96248.00;4956180;28;21070;-68
2023/02/21 14:00:23;;;;;;;4.80;2.43;;;;;;;18.21;28.82;96240.38;4968382;28;20523;-67
2023/02/21 14:03:08;;;;;;;4.20;2.50;;;;;;;18.25;29.38;96238.34;4968292;28;20423;-67
2023/02/21 14:05:46;;;;;;;19.30;3.97;;;;;;;18.24;29.56;96237.50;4967101;28;20495;-67
2023/02/21 14:08:23;;;;;;;21.70;5.30;;;;;;;18.11;28.72;96234.09;4967958;28;20468;-68
2023/02/21 14:10:51;;;;;;;9.70;4.17;;;;;;;17.76;29.15;96235.78;4967721;28;20506;-68
2023/02/21 14:13:31;;;;;;;12.17;3.50;;;;;;;17.60;32.72;96219.31;4968372;28;20413;-66
2023/02/21 14:16:08;;;;;;;7.47;3.40;;;;;;;17.49;29.83;96212.16;4966321;28;20441;-67